createdAt,value
2022-11-05T12:01:45.649Z,62.40
2022-11-05T12:04:00.872Z,67.75
2022-11-05T12:05:38.776Z,65.25
2022-11-05T12:07:36.879Z,61.50
2022-11-05T12:09:47.540Z,60.25
2022-11-05T12:11:43.545Z,56.75
2022-11-05T12:13:21.452Z,52.75
2022-11-05T12:15:09.908Z,57.25
2022-11-05T12:17:03.725Z,55.50
2022-11-05T12:18:50.487Z,57.50
2022-11-05T12:20:30.155Z,54.00
2022-11-05T12:22:07.565Z,49.00
2022-11-05T12:23:43.560Z,50.75
2022-11-05T12:25:40.555Z,53.00
2022-11-05T12:27:59.709Z,53.75
2022-11-05T12:29:35.965Z,51.25
2022-11-05T12:31:43.546Z,62.50
2022-11-05T12:33:22.271Z,49.25
2022-11-05T12:37:22.772Z,45.25
2022-11-05T12:39:24.269Z,36.00
2022-11-05T12:41:11.069Z,40.50
2022-11-05T12:43:07.750Z,38.75
2022-11-05T12:45:00.825Z,39.75
2022-11-05T12:46:48.181Z,42.50
2022-11-05T12:48:46.365Z,45.25
2022-11-05T12:50:23.030Z,50.00
2022-11-05T12:52:06.477Z,51.50
2022-11-05T12:54:03.147Z,51.25
2022-11-05T12:55:41.705Z,56.50
2022-11-05T12:57:16.145Z,56.75
2022-11-05T12:59:01.941Z,56.25
2022-11-05T13:00:33.741Z,53.75
2022-11-05T13:02:28.749Z,57.50
2022-11-05T13:04:08.948Z,58.50
2022-11-05T13:05:42.207Z,52.50
2022-11-05T13:07:15.630Z,59.75
2022-11-05T13:08:52.971Z,66.00
2022-11-05T13:10:41.166Z,62.75
2022-11-05T13:12:17.523Z,60.25
2022-11-05T13:14:20.203Z,73.80
2022-11-05T13:16:04.510Z,67.00
2022-11-05T13:17:43.637Z,67.25
2022-11-05T13:19:32.273Z,68.00
2022-11-05T13:21:05.563Z,68.50
2022-11-05T13:22:48.123Z,69.25
2022-11-05T13:24:25.234Z,74.60
2022-11-05T13:26:03.307Z,75.20
2022-11-05T13:27:58.223Z,73.00
2022-11-05T13:29:41.314Z,78.80
2022-11-05T13:31:18.001Z,84.50
2022-11-05T13:32:56.086Z,87.25
2022-11-05T13:34:29.473Z,85.50
2022-11-05T13:36:28.888Z,95.25
2022-11-05T13:38:23.268Z,90.75
2022-11-05T13:39:58.972Z,89.00
2022-11-05T13:41:40.765Z,97.25
2022-11-05T13:43:24.067Z,92.00
2022-11-05T13:45:01.468Z,92.00
2022-11-05T13:47:08.325Z,91.75
2022-11-05T13:49:02.613Z,93.25
2022-11-05T13:50:46.128Z,84.50
2022-11-05T13:52:40.218Z,81.50
2022-11-05T13:54:35.620Z,75.00
2022-11-05T13:56:28.377Z,73.80
2022-11-05T13:58:14.915Z,78.00
2022-11-05T14:00:24.675Z,74.40
2022-11-05T14:02:00.521Z,75.20
2022-11-05T14:03:32.754Z,69.00
2022-11-05T14:05:05.151Z,76.00
2022-11-05T14:06:37.368Z,70.80
2022-11-05T14:08:11.589Z,72.75
2022-11-05T14:09:44.004Z,62.75
2022-11-05T14:11:16.042Z,71.00
2022-11-05T14:12:50.719Z,72.25
2022-11-05T14:14:30.688Z,61.75
2022-11-05T14:16:08.047Z,66.50
2022-11-05T14:18:00.559Z,63.50
2022-11-05T14:19:37.100Z,59.75
2022-11-05T14:21:30.673Z,63.75
2022-11-05T14:23:21.135Z,65.00
2022-11-05T14:24:53.572Z,62.25
2022-11-05T14:26:29.639Z,59.50
2022-11-05T14:28:01.417Z,60.50
2022-11-05T14:29:46.415Z,55.75
2022-11-05T14:31:18.244Z,53.50
2022-11-05T14:32:51.079Z,55.25
2022-11-05T14:34:41.224Z,50.75
2022-11-05T14:36:22.415Z,52.75
2022-11-05T14:37:58.825Z,51.75
2022-11-05T14:39:31.026Z,44.75
2022-11-05T14:41:02.919Z,45.25
2022-11-05T14:42:34.801Z,47.50
2022-11-05T14:44:06.832Z,48.00
2022-11-05T14:45:39.591Z,52.50
2022-11-05T14:47:19.897Z,55.50
2022-11-05T14:49:05.129Z,59.50
2022-11-05T14:50:41.805Z,60.00
2022-11-05T14:52:13.815Z,61.00
2022-11-05T14:53:45.472Z,61.00
2022-11-05T14:55:36.641Z,68.50
2022-11-05T14:57:33.540Z,71.25
2022-11-05T14:59:34.964Z,71.75
2022-11-05T15:01:27.443Z,72.60
2022-11-05T15:03:01.583Z,77.00
2022-11-05T15:04:35.932Z,77.00
2022-11-05T15:06:28.769Z,76.80
2022-11-05T15:08:00.990Z,75.80
2022-11-05T15:09:35.447Z,69.40
2022-11-05T15:11:18.749Z,74.80
2022-11-05T15:13:02.270Z,72.20
2022-11-05T15:15:01.089Z,78.40
2022-11-05T15:16:49.227Z,77.40
2022-11-05T15:18:33.637Z,73.20
2022-11-05T15:20:17.994Z,77.60
2022-11-05T15:21:50.305Z,69.20
2022-11-05T15:23:24.793Z,73.00
2022-11-05T15:24:56.841Z,70.80
2022-11-05T15:26:40.564Z,68.60
2022-11-05T15:28:41.439Z,70.25
2022-11-05T15:30:21.642Z,71.00
2022-11-05T15:31:53.340Z,65.00
2022-11-05T15:33:25.061Z,69.25
2022-11-05T15:34:56.853Z,67.00
2022-11-05T15:36:30.358Z,70.00
2022-11-05T15:38:02.839Z,76.00
2022-11-05T15:39:47.753Z,79.40
2022-11-05T15:41:34.566Z,76.75
2022-11-05T15:43:17.479Z,160.67
2022-11-05T15:44:50.821Z,157.33
2022-11-05T15:46:30.148Z,153.67
2022-11-05T15:48:01.985Z,159.00
2022-11-05T15:49:33.798Z,143.67
2022-11-05T15:51:05.695Z,113.50
2022-11-05T15:52:47.905Z,110.50
2022-11-05T15:54:35.449Z,106.00
2022-11-05T15:56:24.213Z,101.75
2022-11-05T15:58:06.973Z,111.25
2022-11-05T15:59:38.690Z,98.75
2022-11-05T16:01:22.637Z,86.75
2022-11-05T16:02:59.703Z,86.50
2022-11-05T16:04:33.163Z,81.25
2022-11-05T16:06:07.210Z,83.75
2022-11-05T16:07:43.961Z,78.50
2022-11-05T16:09:32.271Z,79.25
2022-11-05T16:11:04.160Z,87.25
2022-11-05T16:12:36.995Z,81.50
2022-11-05T16:14:16.441Z,84.00
2022-11-05T16:15:55.820Z,80.75
2022-11-05T16:17:31.672Z,89.00
2022-11-05T16:19:40.083Z,85.75
2022-11-05T16:21:18.281Z,88.00
2022-11-05T16:22:52.182Z,81.75
2022-11-05T16:24:29.213Z,79.50
2022-11-05T16:26:01.595Z,80.75
2022-11-05T16:27:33.422Z,82.00
2022-11-05T16:29:15.450Z,85.00
2022-11-05T16:31:01.315Z,80.20
2022-11-05T16:32:33.052Z,78.50
2022-11-05T16:34:04.864Z,79.25
2022-11-05T16:35:38.905Z,78.75
2022-11-05T16:37:12.808Z,74.20
2022-11-05T16:38:44.767Z,77.00
2022-11-05T16:40:24.194Z,73.40
2022-11-05T16:41:56.188Z,73.20
2022-11-05T16:43:28.402Z,74.20
2022-11-05T16:45:00.193Z,71.80
2022-11-05T16:46:32.657Z,66.00
2022-11-05T16:48:04.819Z,60.25
2022-11-05T16:49:38.641Z,66.50
2022-11-05T16:51:12.944Z,69.25
2022-11-05T16:52:45.890Z,61.75
2022-11-05T16:54:17.684Z,64.75
2022-11-05T16:55:49.468Z,69.25
2022-11-05T16:57:31.112Z,83.25
2022-11-05T16:59:03.036Z,76.25
2022-11-05T17:00:35.166Z,65.80
2022-11-05T17:02:10.850Z,66.25
2022-11-05T17:03:42.936Z,67.50
2022-11-05T17:05:32.463Z,73.60
2022-11-05T17:07:04.755Z,64.20
2022-11-05T17:08:36.580Z,77.80
2022-11-05T17:10:08.520Z,75.80
2022-11-05T17:11:40.509Z,74.00
2022-11-05T17:13:17.098Z,73.60
2022-11-05T17:14:49.010Z,70.60
2022-11-05T17:16:20.906Z,75.00
2022-11-05T17:17:53.248Z,73.60
2022-11-05T17:19:25.057Z,77.80
2022-11-05T17:20:57.271Z,74.80
2022-11-05T17:22:29.363Z,73.20
2022-11-05T17:24:01.695Z,73.60
2022-11-05T17:25:33.821Z,74.20
2022-11-05T17:27:05.732Z,73.60
2022-11-05T17:28:37.909Z,72.20
2022-11-05T17:30:10.821Z,72.40
2022-11-05T17:31:42.528Z,67.60
2022-11-05T17:33:14.947Z,76.80
2022-11-05T17:34:46.835Z,76.60
2022-11-05T17:36:18.470Z,108.75
2022-11-05T17:37:50.422Z,80.75
2022-11-05T17:39:24.906Z,79.25
2022-11-05T17:40:59.118Z,81.75
2022-11-05T17:42:30.823Z,86.75
2022-11-05T17:44:02.573Z,90.25
2022-11-05T17:45:34.632Z,85.25
2022-11-05T17:47:06.381Z,97.25
2022-11-05T17:48:38.387Z,97.75
2022-11-05T17:50:11.251Z,86.50
2022-11-05T17:51:42.901Z,81.50
2022-11-05T17:53:15.424Z,88.75
2022-11-05T17:54:47.275Z,88.50
2022-11-05T17:56:30.540Z,84.75
2022-11-05T17:58:05.477Z,73.60
2022-11-05T17:59:37.332Z,77.40
2022-11-05T18:01:09.550Z,72.40
2022-11-05T18:02:41.379Z,71.00
2022-11-05T18:04:13.128Z,74.00
2022-11-05T18:05:45.033Z,75.60
2022-11-05T18:07:16.952Z,71.00
2022-11-05T18:08:48.787Z,73.00
2022-11-05T18:10:20.583Z,71.25
2022-11-05T18:11:52.238Z,73.60
2022-11-05T18:13:24.557Z,67.20
2022-11-05T18:14:56.276Z,65.80
2022-11-05T18:16:28.055Z,73.00
2022-11-05T18:17:59.757Z,68.80
2022-11-05T18:19:31.607Z,75.00
2022-11-05T18:21:03.360Z,69.00
2022-11-05T18:22:36.342Z,71.00
2022-11-05T18:24:08.136Z,78.60
2022-11-05T18:25:40.832Z,78.00
2022-11-05T18:27:12.709Z,77.60
2022-11-05T18:28:44.472Z,84.75
2022-11-05T18:30:16.248Z,146.33
2022-11-05T18:31:48.438Z,199.00
2022-11-05T18:33:20.242Z,198.75
2022-11-05T18:34:52.006Z,143.00
2022-11-05T18:36:28.201Z,129.33
2022-11-05T18:37:59.883Z,125.75
2022-11-05T18:39:31.581Z,118.50
2022-11-05T18:41:06.746Z,112.00
2022-11-05T18:42:38.546Z,115.50
2022-11-05T18:44:15.058Z,115.75
2022-11-05T18:45:54.777Z,105.00
2022-11-05T18:47:26.418Z,108.75
2022-11-05T18:48:59.159Z,103.25
2022-11-05T18:50:30.993Z,90.00
2022-11-05T18:52:03.370Z,96.00
2022-11-05T18:53:35.063Z,103.50
2022-11-05T18:55:07.411Z,95.00
2022-11-05T18:56:45.808Z,94.00
2022-11-05T18:58:18.404Z,89.75
2022-11-05T18:59:50.265Z,90.50
2022-11-05T19:01:26.676Z,91.25
2022-11-05T19:02:59.026Z,86.75
2022-11-05T19:04:31.561Z,84.00
2022-11-05T19:06:04.304Z,88.50
2022-11-05T19:07:37.485Z,94.75
2022-11-05T19:09:12.370Z,91.00
2022-11-05T19:10:49.744Z,96.75
2022-11-05T19:12:21.613Z,92.25
2022-11-05T19:13:53.447Z,82.25
2022-11-05T19:15:25.174Z,94.25
2022-11-05T19:16:57.648Z,91.00
2022-11-05T19:18:29.370Z,89.00
2022-11-05T19:20:01.233Z,95.50
2022-11-05T19:21:33.999Z,90.25
2022-11-05T19:23:06.494Z,90.50
2022-11-05T19:24:38.678Z,101.25
2022-11-05T19:26:18.365Z,97.50
2022-11-05T19:27:50.121Z,103.75
2022-11-05T19:29:22.121Z,105.50
2022-11-05T19:30:53.820Z,105.00
2022-11-05T19:32:26.399Z,99.00
2022-11-05T19:33:58.213Z,102.75
2022-11-05T19:35:30.727Z,105.00
2022-11-05T19:37:03.015Z,96.00
2022-11-05T19:38:34.927Z,111.00
2022-11-05T19:40:07.534Z,103.25
2022-11-05T19:41:39.333Z,106.25
2022-11-05T19:43:11.264Z,95.50
2022-11-05T19:44:43.824Z,107.25
2022-11-05T19:46:19.204Z,96.00
2022-11-05T19:47:50.916Z,115.75
2022-11-05T19:49:23.273Z,106.25
2022-11-05T19:50:55.549Z,115.25
2022-11-05T19:52:27.299Z,103.75
2022-11-05T19:54:00.544Z,109.50
2022-11-05T19:55:32.384Z,110.50
2022-11-05T19:57:04.240Z,108.75
2022-11-05T19:58:35.915Z,103.25
2022-11-05T20:00:08.300Z,104.50
2022-11-05T20:01:42.589Z,117.75
2022-11-05T20:03:14.713Z,110.25
2022-11-05T20:04:46.790Z,104.50
2022-11-05T20:06:32.132Z,101.50
2022-11-05T20:08:04.320Z,92.50
2022-11-05T20:09:35.982Z,103.00
2022-11-05T20:11:07.731Z,98.00
2022-11-05T20:12:39.472Z,101.75
2022-11-05T20:14:11.301Z,100.25
2022-11-05T20:15:42.985Z,114.75
2022-11-05T20:17:14.943Z,135.00
2022-11-05T20:18:46.688Z,106.50
2022-11-05T20:20:18.967Z,106.50
2022-11-05T20:21:50.723Z,111.00
2022-11-05T20:23:22.430Z,99.50
2022-11-05T20:24:54.198Z,107.75
2022-11-05T20:26:26.703Z,102.50
2022-11-05T20:27:58.484Z,99.50
2022-11-05T20:29:35.322Z,100.25
2022-11-05T20:31:11.718Z,100.00
2022-11-05T20:32:43.406Z,97.25
2022-11-05T20:34:15.762Z,97.00
2022-11-05T20:35:48.618Z,88.75
2022-11-05T20:37:20.760Z,96.00
2022-11-05T20:38:55.399Z,94.00
2022-11-05T20:40:27.750Z,97.25
2022-11-05T20:42:00.610Z,99.00
2022-11-05T20:43:32.626Z,95.25
2022-11-05T20:45:04.924Z,95.50
2022-11-05T20:46:36.718Z,101.50
2022-11-05T20:48:08.344Z,99.75
2022-11-05T20:49:40.060Z,99.25
2022-11-05T20:51:14.125Z,97.75
2022-11-05T20:52:45.830Z,97.00
2022-11-05T20:54:18.238Z,85.50
2022-11-05T20:55:50.085Z,96.75
2022-11-05T20:57:22.406Z,102.25
2022-11-05T20:58:54.571Z,102.50
2022-11-05T21:00:26.284Z,102.00
2022-11-05T21:01:58.065Z,95.25
2022-11-05T21:03:29.893Z,102.75
2022-11-05T21:05:02.407Z,97.25
2022-11-05T21:06:35.908Z,99.50
2022-11-05T21:08:07.606Z,93.00
2022-11-05T21:09:39.358Z,103.25
2022-11-05T21:11:11.292Z,98.25
2022-11-05T21:12:43.052Z,95.00
2022-11-05T21:14:14.781Z,101.00
2022-11-05T21:15:50.734Z,95.25
2022-11-05T21:17:22.429Z,91.00
2022-11-05T21:18:54.141Z,90.25
2022-11-05T21:20:25.923Z,102.25
2022-11-05T21:21:57.627Z,96.50
2022-11-05T21:23:29.338Z,99.50
2022-11-05T21:25:01.049Z,93.75
2022-11-05T21:26:33.669Z,102.75
2022-11-05T21:28:06.234Z,97.75
2022-11-05T21:29:37.937Z,103.00
2022-11-05T21:31:09.865Z,90.25
2022-11-05T21:32:41.574Z,94.75
2022-11-05T21:34:13.355Z,96.25
2022-11-05T21:35:46.607Z,100.75
2022-11-05T21:37:18.255Z,103.50
2022-11-05T21:38:49.938Z,105.00
2022-11-05T21:40:21.887Z,96.50
2022-11-05T21:41:54.144Z,102.00
2022-11-05T21:43:25.851Z,98.50
2022-11-05T21:45:00.392Z,101.50
2022-11-05T21:46:32.554Z,97.50
2022-11-05T21:48:04.492Z,94.25
2022-11-05T21:49:36.327Z,103.25
2022-11-05T21:51:28.710Z,100.00
2022-11-05T21:53:19.091Z,98.75
2022-11-05T21:55:09.203Z,98.50
2022-11-05T21:56:59.501Z,101.00
2022-11-05T21:58:49.814Z,103.50
2022-11-05T22:00:21.615Z,102.75
2022-11-05T22:02:01.373Z,102.00
2022-11-05T22:03:33.417Z,99.00
2022-11-05T22:05:05.737Z,101.50
2022-11-05T22:06:37.459Z,102.50
2022-11-05T22:08:09.536Z,103.25
2022-11-05T22:09:41.464Z,97.50
2022-11-05T22:11:13.118Z,93.25
2022-11-05T22:12:45.217Z,96.50
2022-11-05T22:14:16.951Z,96.00
2022-11-05T22:15:55.669Z,86.75
2022-11-05T22:17:27.382Z,94.75
2022-11-05T22:18:59.226Z,99.00
2022-11-05T22:20:30.882Z,93.00
2022-11-05T22:22:03.806Z,94.00
2022-11-05T22:23:35.532Z,88.25
2022-11-05T22:25:09.469Z,94.00
2022-11-05T22:26:41.938Z,100.25
2022-11-05T22:28:13.937Z,96.00
2022-11-05T22:29:46.225Z,87.75
2022-11-05T22:31:17.896Z,89.75
2022-11-05T22:32:49.851Z,82.75
2022-11-05T22:34:21.853Z,80.75
2022-11-05T22:35:53.955Z,85.75
2022-11-05T22:37:25.872Z,84.00
2022-11-05T22:38:57.611Z,85.75
2022-11-05T22:40:29.275Z,81.00
2022-11-05T22:42:05.588Z,89.75
2022-11-05T22:43:39.905Z,81.25
2022-11-05T22:45:11.813Z,76.80
2022-11-05T22:46:43.656Z,72.00
2022-11-05T22:48:15.823Z,67.00
2022-11-05T22:49:49.476Z,70.60
2022-11-05T22:51:22.740Z,69.00
2022-11-05T22:52:54.582Z,73.20
2022-11-05T22:54:26.436Z,70.00
2022-11-05T22:55:58.289Z,69.60
2022-11-05T22:57:30.002Z,73.80
2022-11-05T22:59:01.977Z,75.80
2022-11-05T23:00:35.829Z,76.20
2022-11-05T23:02:09.983Z,70.20
2022-11-05T23:03:43.088Z,74.80
2022-11-05T23:05:15.890Z,74.80
2022-11-05T23:07:06.416Z,71.60
2022-11-05T23:08:57.127Z,73.60
2022-11-05T23:10:47.247Z,67.40
2022-11-05T23:12:22.421Z,76.00
2022-11-05T23:13:55.978Z,76.80
2022-11-05T23:15:46.376Z,73.40
2022-11-05T23:17:36.514Z,77.00
2022-11-05T23:19:27.791Z,82.00
2022-11-05T23:21:21.964Z,81.00
2022-11-05T23:23:13.299Z,81.50
2022-11-05T23:24:44.919Z,73.50
2022-11-05T23:26:35.328Z,79.00
2022-11-05T23:28:08.057Z,80.60
2022-11-05T23:29:39.805Z,78.80
2022-11-05T23:31:30.348Z,79.60
2022-11-05T23:33:02.080Z,79.40
2022-11-05T23:34:33.724Z,76.40
